sensor_id;sensor_type;location;lat;lon;timestamp;P1;durP1;ratioP1;P2;durP2;ratioP2
67278;SDS011;54193;53.746;10.058;2022-10-04T00:05:08;15.05;;;4.97;;
67278;SDS011;54193;53.746;10.058;2022-10-04T00:08:12;16.73;;;5.20;;
67278;SDS011;54193;53.746;10.058;2022-10-04T00:11:24;16.73;;;4.80;;
67278;SDS011;54193;53.746;10.058;2022-10-04T00:14:29;15.70;;;5.13;;
67278;SDS011;54193;53.746;10.058;2022-10-04T00:17:22;17.40;;;4.90;;
67278;SDS011;54193;53.746;10.058;2022-10-04T00:33:03;16.10;;;5.60;;
67278;SDS011;54193;53.746;10.058;2022-10-04T00:38:13;16.15;;;5.20;;
67278;SDS011;54193;53.746;10.058;2022-10-04T00:41:02;17.30;;;5.45;;
67278;SDS011;54193;53.746;10.058;2022-10-04T00:43:51;15.05;;;5.57;;
67278;SDS011;54193;53.746;10.058;2022-10-04T00:46:38;15.77;;;5.50;;
67278;SDS011;54193;53.746;10.058;2022-10-04T00:49:28;17.55;;;5.93;;
67278;SDS011;54193;53.746;10.058;2022-10-04T00:52:26;15.75;;;5.28;;
67278;SDS011;54193;53.746;10.058;2022-10-04T00:55:26;19.67;;;5.85;;
67278;SDS011;54193;53.746;10.058;2022-10-04T00:58:21;18.70;;;5.35;;
67278;SDS011;54193;53.746;10.058;2022-10-04T01:01:11;14.77;;;5.97;;
67278;SDS011;54193;53.746;10.058;2022-10-04T01:03:56;14.95;;;5.10;;
67278;SDS011;54193;53.746;10.058;2022-10-04T01:06:45;15.60;;;5.25;;
67278;SDS011;54193;53.746;10.058;2022-10-04T01:09:36;17.60;;;5.25;;
67278;SDS011;54193;53.746;10.058;2022-10-04T01:26:53;13.90;;;4.43;;
67278;SDS011;54193;53.746;10.058;2022-10-04T01:29:39;18.67;;;5.40;;
67278;SDS011;54193;53.746;10.058;2022-10-04T01:32:24;16.38;;;5.13;;
67278;SDS011;54193;53.746;10.058;2022-10-04T01:35:11;19.27;;;5.22;;
67278;SDS011;54193;53.746;10.058;2022-10-04T01:37:58;15.98;;;4.78;;
67278;SDS011;54193;53.746;10.058;2022-10-04T01:40:50;17.00;;;5.25;;
67278;SDS011;54193;53.746;10.058;2022-10-04T01:43:41;18.17;;;5.10;;
67278;SDS011;54193;53.746;10.058;2022-10-04T01:46:32;15.65;;;5.10;;
67278;SDS011;54193;53.746;10.058;2022-10-04T01:49:21;12.80;;;4.93;;
67278;SDS011;54193;53.746;10.058;2022-10-04T01:52:26;19.58;;;5.22;;
67278;SDS011;54193;53.746;10.058;2022-10-04T01:55:18;15.80;;;5.05;;
67278;SDS011;54193;53.746;10.058;2022-10-04T01:58:10;18.03;;;5.10;;
67278;SDS011;54193;53.746;10.058;2022-10-04T02:01:06;17.75;;;5.00;;
67278;SDS011;54193;53.746;10.058;2022-10-04T02:04:17;16.90;;;5.20;;
67278;SDS011;54193;53.746;10.058;2022-10-04T02:07:12;19.65;;;4.90;;
67278;SDS011;54193;53.746;10.058;2022-10-04T02:10:00;19.27;;;5.50;;
67278;SDS011;54193;53.746;10.058;2022-10-04T02:12:49;17.70;;;5.53;;
67278;SDS011;54193;53.746;10.058;2022-10-04T02:30:27;15.03;;;4.93;;
67278;SDS011;54193;53.746;10.058;2022-10-04T02:33:13;19.52;;;5.68;;
67278;SDS011;54193;53.746;10.058;2022-10-04T02:35:59;15.68;;;5.53;;
67278;SDS011;54193;53.746;10.058;2022-10-04T02:38:47;18.38;;;6.05;;
67278;SDS011;54193;53.746;10.058;2022-10-04T02:41:51;20.83;;;6.40;;
67278;SDS011;54193;53.746;10.058;2022-10-04T02:44:44;20.03;;;5.90;;
67278;SDS011;54193;53.746;10.058;2022-10-04T02:47:41;16.45;;;5.50;;
67278;SDS011;54193;53.746;10.058;2022-10-04T02:50:30;19.50;;;5.70;;
67278;SDS011;54193;53.746;10.058;2022-10-04T02:56:10;17.13;;;5.22;;
67278;SDS011;54193;53.746;10.058;2022-10-04T02:59:01;18.80;;;5.33;;
67278;SDS011;54193;53.746;10.058;2022-10-04T03:01:52;14.15;;;4.93;;
67278;SDS011;54193;53.746;10.058;2022-10-04T03:04:39;18.65;;;5.30;;
67278;SDS011;54193;53.746;10.058;2022-10-04T03:07:25;16.90;;;4.93;;
67278;SDS011;54193;53.746;10.058;2022-10-04T03:10:11;18.55;;;5.18;;
67278;SDS011;54193;53.746;10.058;2022-10-04T03:12:57;13.73;;;4.57;;
67278;SDS011;54193;53.746;10.058;2022-10-04T03:15:43;14.77;;;4.97;;
67278;SDS011;54193;53.746;10.058;2022-10-04T03:18:30;14.85;;;5.22;;
67278;SDS011;54193;53.746;10.058;2022-10-04T03:21:18;17.35;;;5.43;;
67278;SDS011;54193;53.746;10.058;2022-10-04T03:24:05;14.65;;;4.80;;
67278;SDS011;54193;53.746;10.058;2022-10-04T03:26:55;16.60;;;4.60;;
67278;SDS011;54193;53.746;10.058;2022-10-04T03:29:42;14.57;;;4.50;;
67278;SDS011;54193;53.746;10.058;2022-10-04T03:32:28;14.25;;;4.50;;
67278;SDS011;54193;53.746;10.058;2022-10-04T03:35:19;14.90;;;4.45;;
67278;SDS011;54193;53.746;10.058;2022-10-04T03:38:12;14.68;;;4.18;;
67278;SDS011;54193;53.746;10.058;2022-10-04T03:40:59;13.17;;;4.07;;
67278;SDS011;54193;53.746;10.058;2022-10-04T03:43:46;16.77;;;4.68;;
67278;SDS011;54193;53.746;10.058;2022-10-04T03:46:34;16.73;;;4.30;;
67278;SDS011;54193;53.746;10.058;2022-10-04T03:49:32;15.27;;;4.20;;
67278;SDS011;54193;53.746;10.058;2022-10-04T03:52:22;14.05;;;3.63;;
67278;SDS011;54193;53.746;10.058;2022-10-04T03:55:10;13.07;;;4.00;;
67278;SDS011;54193;53.746;10.058;2022-10-04T03:57:59;12.75;;;4.10;;
67278;SDS011;54193;53.746;10.058;2022-10-04T04:00:54;16.20;;;4.25;;
67278;SDS011;54193;53.746;10.058;2022-10-04T04:03:56;12.73;;;3.95;;
67278;SDS011;54193;53.746;10.058;2022-10-04T04:09:43;11.13;;;3.50;;
67278;SDS011;54193;53.746;10.058;2022-10-04T04:15:40;13.52;;;3.55;;
67278;SDS011;54193;53.746;10.058;2022-10-04T04:18:28;10.93;;;3.72;;
67278;SDS011;54193;53.746;10.058;2022-10-04T04:21:17;14.20;;;4.32;;
67278;SDS011;54193;53.746;10.058;2022-10-04T04:24:06;15.23;;;3.77;;
67278;SDS011;54193;53.746;10.058;2022-10-04T04:27:01;10.80;;;3.10;;
67278;SDS011;54193;53.746;10.058;2022-10-04T04:29:52;12.15;;;3.63;;
67278;SDS011;54193;53.746;10.058;2022-10-04T04:32:39;8.90;;;3.58;;
67278;SDS011;54193;53.746;10.058;2022-10-04T04:35:30;11.88;;;4.10;;
67278;SDS011;54193;53.746;10.058;2022-10-04T04:38:19;13.67;;;3.83;;
67278;SDS011;54193;53.746;10.058;2022-10-04T04:41:08;13.32;;;3.53;;
67278;SDS011;54193;53.746;10.058;2022-10-04T04:43:55;12.07;;;4.05;;
67278;SDS011;54193;53.746;10.058;2022-10-04T04:46:41;12.80;;;3.97;;
67278;SDS011;54193;53.746;10.058;2022-10-04T04:49:28;12.30;;;4.22;;
67278;SDS011;54193;53.746;10.058;2022-10-04T04:52:15;13.43;;;4.07;;
67278;SDS011;54193;53.746;10.058;2022-10-04T04:55:05;13.80;;;4.28;;
67278;SDS011;54193;53.746;10.058;2022-10-04T04:58:02;12.45;;;4.90;;
67278;SDS011;54193;53.746;10.058;2022-10-04T05:00:58;14.05;;;4.68;;
67278;SDS011;54193;53.746;10.058;2022-10-04T05:03:58;13.32;;;4.85;;
67278;SDS011;54193;53.746;10.058;2022-10-04T05:06:47;10.03;;;4.40;;
67278;SDS011;54193;53.746;10.058;2022-10-04T05:09:45;14.80;;;5.03;;
67278;SDS011;54193;53.746;10.058;2022-10-04T05:12:30;13.90;;;4.85;;
67278;SDS011;54193;53.746;10.058;2022-10-04T05:15:16;16.00;;;5.18;;
67278;SDS011;54193;53.746;10.058;2022-10-04T05:18:11;15.45;;;5.35;;
67278;SDS011;54193;53.746;10.058;2022-10-04T05:21:26;15.23;;;4.60;;
67278;SDS011;54193;53.746;10.058;2022-10-04T05:27:22;14.70;;;5.38;;
67278;SDS011;54193;53.746;10.058;2022-10-04T05:33:25;19.00;;;5.72;;
67278;SDS011;54193;53.746;10.058;2022-10-04T05:39:28;13.50;;;5.15;;
67278;SDS011;54193;53.746;10.058;2022-10-04T05:42:38;13.25;;;5.25;;
67278;SDS011;54193;53.746;10.058;2022-10-04T05:45:29;16.27;;;4.97;;
67278;SDS011;54193;53.746;10.058;2022-10-04T05:48:15;13.90;;;5.40;;
67278;SDS011;54193;53.746;10.058;2022-10-04T05:51:11;15.23;;;5.90;;
67278;SDS011;54193;53.746;10.058;2022-10-04T05:54:03;15.52;;;5.65;;
67278;SDS011;54193;53.746;10.058;2022-10-04T06:00:00;14.52;;;5.50;;
67278;SDS011;54193;53.746;10.058;2022-10-04T06:06:14;12.83;;;4.83;;
67278;SDS011;54193;53.746;10.058;2022-10-04T06:24:59;13.82;;;5.15;;
67278;SDS011;54193;53.746;10.058;2022-10-04T06:28:03;16.00;;;5.75;;
67278;SDS011;54193;53.746;10.058;2022-10-04T06:43:17;16.00;;;6.28;;
67278;SDS011;54193;53.746;10.058;2022-10-04T06:56:23;22.73;;;8.05;;
67278;SDS011;54193;53.746;10.058;2022-10-04T06:59:21;15.77;;;7.28;;
67278;SDS011;54193;53.746;10.058;2022-10-04T07:02:31;16.33;;;7.03;;
67278;SDS011;54193;53.746;10.058;2022-10-04T07:05:24;13.02;;;6.85;;
67278;SDS011;54193;53.746;10.058;2022-10-04T07:08:49;13.63;;;6.23;;
67278;SDS011;54193;53.746;10.058;2022-10-04T07:11:39;16.48;;;7.07;;
67278;SDS011;54193;53.746;10.058;2022-10-04T07:14:31;19.05;;;7.32;;
67278;SDS011;54193;53.746;10.058;2022-10-04T07:17:42;14.88;;;6.88;;
67278;SDS011;54193;53.746;10.058;2022-10-04T07:20:30;19.13;;;7.13;;
67278;SDS011;54193;53.746;10.058;2022-10-04T07:23:23;18.33;;;7.60;;
67278;SDS011;54193;53.746;10.058;2022-10-04T07:26:28;16.85;;;7.65;;
67278;SDS011;54193;53.746;10.058;2022-10-04T07:29:24;20.08;;;8.00;;
67278;SDS011;54193;53.746;10.058;2022-10-04T07:32:26;15.93;;;7.97;;
67278;SDS011;54193;53.746;10.058;2022-10-04T07:35:18;20.27;;;7.95;;
67278;SDS011;54193;53.746;10.058;2022-10-04T07:38:22;20.37;;;8.63;;
67278;SDS011;54193;53.746;10.058;2022-10-04T07:41:19;21.42;;;9.00;;
67278;SDS011;54193;53.746;10.058;2022-10-04T07:44:16;18.40;;;8.95;;
67278;SDS011;54193;53.746;10.058;2022-10-04T07:50:19;24.38;;;9.70;;
67278;SDS011;54193;53.746;10.058;2022-10-04T07:53:09;19.73;;;9.13;;
67278;SDS011;54193;53.746;10.058;2022-10-04T07:56:03;19.52;;;9.73;;
67278;SDS011;54193;53.746;10.058;2022-10-04T08:02:22;18.67;;;8.75;;
67278;SDS011;54193;53.746;10.058;2022-10-04T08:11:14;21.55;;;9.35;;
67278;SDS011;54193;53.746;10.058;2022-10-04T08:27:11;21.58;;;9.27;;
67278;SDS011;54193;53.746;10.058;2022-10-04T08:30:18;26.02;;;9.52;;
67278;SDS011;54193;53.746;10.058;2022-10-04T08:33:09;18.73;;;8.95;;
67278;SDS011;54193;53.746;10.058;2022-10-04T08:36:19;21.92;;;9.77;;
67278;SDS011;54193;53.746;10.058;2022-10-04T08:39:16;18.83;;;8.90;;
67278;SDS011;54193;53.746;10.058;2022-10-04T08:42:26;21.02;;;8.23;;
67278;SDS011;54193;53.746;10.058;2022-10-04T08:55:00;17.43;;;7.87;;
67278;SDS011;54193;53.746;10.058;2022-10-04T08:58:09;17.48;;;7.38;;
67278;SDS011;54193;53.746;10.058;2022-10-04T09:01:14;18.23;;;8.23;;
67278;SDS011;54193;53.746;10.058;2022-10-04T09:05:05;20.40;;;8.00;;
67278;SDS011;54193;53.746;10.058;2022-10-04T09:22:53;16.42;;;6.60;;
67278;SDS011;54193;53.746;10.058;2022-10-04T09:29:10;19.48;;;6.72;;
67278;SDS011;54193;53.746;10.058;2022-10-04T09:32:18;13.93;;;6.30;;
67278;SDS011;54193;53.746;10.058;2022-10-04T09:38:50;15.88;;;6.00;;
67278;SDS011;54193;53.746;10.058;2022-10-04T09:41:56;13.10;;;5.83;;
67278;SDS011;54193;53.746;10.058;2022-10-04T09:51:23;12.70;;;6.55;;
67278;SDS011;54193;53.746;10.058;2022-10-04T10:01:04;15.23;;;6.63;;
67278;SDS011;54193;53.746;10.058;2022-10-04T10:06:50;16.90;;;6.68;;
67278;SDS011;54193;53.746;10.058;2022-10-04T10:09:46;13.38;;;6.60;;
67278;SDS011;54193;53.746;10.058;2022-10-04T10:16:31;16.92;;;7.68;;
67278;SDS011;54193;53.746;10.058;2022-10-04T10:29:44;21.07;;;7.67;;
67278;SDS011;54193;53.746;10.058;2022-10-04T10:32:43;16.27;;;6.70;;
67278;SDS011;54193;53.746;10.058;2022-10-04T10:45:46;14.90;;;7.53;;
67278;SDS011;54193;53.746;10.058;2022-10-04T10:58:26;14.77;;;7.20;;
67278;SDS011;54193;53.746;10.058;2022-10-04T11:04:33;15.73;;;7.10;;
67278;SDS011;54193;53.746;10.058;2022-10-04T11:07:40;24.02;;;7.63;;
67278;SDS011;54193;53.746;10.058;2022-10-04T11:39:42;15.88;;;7.80;;
67278;SDS011;54193;53.746;10.058;2022-10-04T11:46:02;11.77;;;6.30;;
67278;SDS011;54193;53.746;10.058;2022-10-04T12:04:41;11.23;;;5.30;;
67278;SDS011;54193;53.746;10.058;2022-10-04T12:10:39;11.32;;;4.90;;
67278;SDS011;54193;53.746;10.058;2022-10-04T12:16:45;12.75;;;4.25;;
67278;SDS011;54193;53.746;10.058;2022-10-04T12:19:52;8.77;;;4.10;;
67278;SDS011;54193;53.746;10.058;2022-10-04T12:23:04;10.20;;;3.55;;
67278;SDS011;54193;53.746;10.058;2022-10-04T12:31:59;10.50;;;3.80;;
67278;SDS011;54193;53.746;10.058;2022-10-04T12:35:01;6.70;;;2.77;;
67278;SDS011;54193;53.746;10.058;2022-10-04T12:41:22;8.45;;;3.30;;
67278;SDS011;54193;53.746;10.058;2022-10-04T12:44:16;6.32;;;3.30;;
67278;SDS011;54193;53.746;10.058;2022-10-04T12:59:56;7.18;;;3.30;;
67278;SDS011;54193;53.746;10.058;2022-10-04T13:15:17;12.82;;;3.88;;
67278;SDS011;54193;53.746;10.058;2022-10-04T13:18:19;10.32;;;3.80;;
67278;SDS011;54193;53.746;10.058;2022-10-04T13:21:43;8.30;;;3.50;;
67278;SDS011;54193;53.746;10.058;2022-10-04T13:30:46;8.48;;;3.42;;
67278;SDS011;54193;53.746;10.058;2022-10-04T13:33:54;9.30;;;3.50;;
67278;SDS011;54193;53.746;10.058;2022-10-04T13:40:23;7.80;;;3.63;;
67278;SDS011;54193;53.746;10.058;2022-10-04T14:18:18;5.15;;;2.50;;
67278;SDS011;54193;53.746;10.058;2022-10-04T14:31:40;7.60;;;3.25;;
67278;SDS011;54193;53.746;10.058;2022-10-04T14:34:46;6.07;;;3.00;;
67278;SDS011;54193;53.746;10.058;2022-10-04T14:37:48;11.55;;;3.80;;
67278;SDS011;54193;53.746;10.058;2022-10-04T14:46:41;7.13;;;3.40;;
67278;SDS011;54193;53.746;10.058;2022-10-04T14:50:14;8.35;;;2.92;;
67278;SDS011;54193;53.746;10.058;2022-10-04T15:10:54;9.83;;;3.37;;
67278;SDS011;54193;53.746;10.058;2022-10-04T15:16:44;7.68;;;3.08;;
67278;SDS011;54193;53.746;10.058;2022-10-04T15:26:04;7.13;;;3.17;;
67278;SDS011;54193;53.746;10.058;2022-10-04T15:29:13;6.75;;;3.40;;
67278;SDS011;54193;53.746;10.058;2022-10-04T15:38:48;9.25;;;3.58;;
67278;SDS011;54193;53.746;10.058;2022-10-04T15:41:41;8.60;;;3.43;;
67278;SDS011;54193;53.746;10.058;2022-10-04T15:44:47;8.35;;;4.00;;
67278;SDS011;54193;53.746;10.058;2022-10-04T15:50:53;7.53;;;3.55;;
67278;SDS011;54193;53.746;10.058;2022-10-04T15:57:03;6.00;;;3.40;;
67278;SDS011;54193;53.746;10.058;2022-10-04T16:00:13;6.95;;;3.63;;
67278;SDS011;54193;53.746;10.058;2022-10-04T16:06:17;6.75;;;3.50;;
67278;SDS011;54193;53.746;10.058;2022-10-04T16:12:27;10.90;;;4.32;;
67278;SDS011;54193;53.746;10.058;2022-10-04T16:15:18;7.60;;;3.60;;
67278;SDS011;54193;53.746;10.058;2022-10-04T16:27:12;8.07;;;4.30;;
67278;SDS011;54193;53.746;10.058;2022-10-04T16:30:36;10.05;;;4.35;;
67278;SDS011;54193;53.746;10.058;2022-10-04T16:33:28;12.53;;;5.00;;
67278;SDS011;54193;53.746;10.058;2022-10-04T16:36:48;7.97;;;4.30;;
67278;SDS011;54193;53.746;10.058;2022-10-04T16:42:57;8.52;;;4.63;;
67278;SDS011;54193;53.746;10.058;2022-10-04T16:57:42;8.00;;;4.25;;
67278;SDS011;54193;53.746;10.058;2022-10-04T17:00:31;10.65;;;4.20;;
67278;SDS011;54193;53.746;10.058;2022-10-04T17:03:24;8.27;;;4.30;;
67278;SDS011;54193;53.746;10.058;2022-10-04T17:06:24;7.30;;;4.25;;
67278;SDS011;54193;53.746;10.058;2022-10-04T17:09:28;7.78;;;4.30;;
67278;SDS011;54193;53.746;10.058;2022-10-04T17:12:23;8.43;;;4.57;;
67278;SDS011;54193;53.746;10.058;2022-10-04T17:15:22;9.50;;;4.75;;
67278;SDS011;54193;53.746;10.058;2022-10-04T17:18:19;9.93;;;4.93;;
67278;SDS011;54193;53.746;10.058;2022-10-04T17:21:22;12.23;;;5.30;;
67278;SDS011;54193;53.746;10.058;2022-10-04T17:27:26;11.30;;;4.68;;
67278;SDS011;54193;53.746;10.058;2022-10-04T17:30:29;7.88;;;4.72;;
67278;SDS011;54193;53.746;10.058;2022-10-04T17:46:28;12.15;;;5.40;;
67278;SDS011;54193;53.746;10.058;2022-10-04T17:49:23;10.73;;;5.43;;
67278;SDS011;54193;53.746;10.058;2022-10-04T17:52:44;10.73;;;6.13;;
67278;SDS011;54193;53.746;10.058;2022-10-04T17:55:56;10.45;;;6.30;;
67278;SDS011;54193;53.746;10.058;2022-10-04T17:58:52;12.05;;;6.40;;
67278;SDS011;54193;53.746;10.058;2022-10-04T18:01:41;12.38;;;6.43;;
67278;SDS011;54193;53.746;10.058;2022-10-04T18:04:33;12.63;;;6.33;;
67278;SDS011;54193;53.746;10.058;2022-10-04T18:07:31;10.57;;;6.18;;
67278;SDS011;54193;53.746;10.058;2022-10-04T18:13:15;14.20;;;6.78;;
67278;SDS011;54193;53.746;10.058;2022-10-04T18:16:14;13.00;;;7.22;;
67278;SDS011;54193;53.746;10.058;2022-10-04T18:19:31;11.90;;;5.97;;
67278;SDS011;54193;53.746;10.058;2022-10-04T18:22:24;11.45;;;6.57;;
67278;SDS011;54193;53.746;10.058;2022-10-04T18:25:17;13.00;;;6.63;;
67278;SDS011;54193;53.746;10.058;2022-10-04T18:30:57;12.57;;;6.45;;
67278;SDS011;54193;53.746;10.058;2022-10-04T18:33:45;11.33;;;6.90;;
67278;SDS011;54193;53.746;10.058;2022-10-04T18:39:48;14.50;;;7.20;;
67278;SDS011;54193;53.746;10.058;2022-10-04T18:42:35;13.27;;;7.00;;
67278;SDS011;54193;53.746;10.058;2022-10-04T18:45:27;11.00;;;6.90;;
67278;SDS011;54193;53.746;10.058;2022-10-04T18:48:14;16.80;;;8.60;;
67278;SDS011;54193;53.746;10.058;2022-10-04T18:51:19;13.57;;;7.53;;
67278;SDS011;54193;53.746;10.058;2022-10-04T19:00:08;14.35;;;7.40;;
67278;SDS011;54193;53.746;10.058;2022-10-04T19:06:41;14.80;;;7.43;;
67278;SDS011;54193;53.746;10.058;2022-10-04T19:12:28;13.05;;;7.65;;
67278;SDS011;54193;53.746;10.058;2022-10-04T19:15:25;14.65;;;8.40;;
67278;SDS011;54193;53.746;10.058;2022-10-04T19:18:26;13.40;;;7.93;;
67278;SDS011;54193;53.746;10.058;2022-10-04T19:21:40;14.55;;;8.35;;
67278;SDS011;54193;53.746;10.058;2022-10-04T19:27:46;13.75;;;7.90;;
67278;SDS011;54193;53.746;10.058;2022-10-04T19:30:42;15.52;;;8.18;;
67278;SDS011;54193;53.746;10.058;2022-10-04T19:33:40;15.93;;;8.10;;
67278;SDS011;54193;53.746;10.058;2022-10-04T19:37:11;17.08;;;7.80;;
67278;SDS011;54193;53.746;10.058;2022-10-04T19:40:14;15.55;;;7.70;;
67278;SDS011;54193;53.746;10.058;2022-10-04T19:43:07;13.50;;;7.90;;
67278;SDS011;54193;53.746;10.058;2022-10-04T19:52:45;14.57;;;7.43;;
67278;SDS011;54193;53.746;10.058;2022-10-04T19:55:41;14.43;;;7.75;;
67278;SDS011;54193;53.746;10.058;2022-10-04T20:01:25;14.95;;;7.50;;
67278;SDS011;54193;53.746;10.058;2022-10-04T20:04:14;12.67;;;7.47;;
67278;SDS011;54193;53.746;10.058;2022-10-04T20:07:20;16.25;;;7.47;;
67278;SDS011;54193;53.746;10.058;2022-10-04T20:15:56;14.07;;;7.72;;
67278;SDS011;54193;53.746;10.058;2022-10-04T20:21:35;15.70;;;7.82;;
67278;SDS011;54193;53.746;10.058;2022-10-04T20:30:24;13.93;;;7.40;;
67278;SDS011;54193;53.746;10.058;2022-10-04T20:33:10;12.33;;;7.33;;
67278;SDS011;54193;53.746;10.058;2022-10-04T20:39:04;13.25;;;7.00;;
67278;SDS011;54193;53.746;10.058;2022-10-04T20:42:01;16.42;;;7.95;;
67278;SDS011;54193;53.746;10.058;2022-10-04T20:47:55;14.17;;;7.23;;
67278;SDS011;54193;53.746;10.058;2022-10-04T20:50:43;13.40;;;7.20;;
67278;SDS011;54193;53.746;10.058;2022-10-04T20:53:33;16.27;;;7.05;;
67278;SDS011;54193;53.746;10.058;2022-10-04T20:56:20;13.43;;;7.38;;
67278;SDS011;54193;53.746;10.058;2022-10-04T20:59:12;12.50;;;7.05;;
67278;SDS011;54193;53.746;10.058;2022-10-04T21:02:00;12.87;;;6.80;;
67278;SDS011;54193;53.746;10.058;2022-10-04T21:04:49;13.32;;;7.28;;
67278;SDS011;54193;53.746;10.058;2022-10-04T21:07:37;13.43;;;7.47;;
67278;SDS011;54193;53.746;10.058;2022-10-04T21:10:23;13.77;;;7.05;;
67278;SDS011;54193;53.746;10.058;2022-10-04T21:13:37;12.88;;;6.82;;
67278;SDS011;54193;53.746;10.058;2022-10-04T21:25:25;12.93;;;6.43;;
67278;SDS011;54193;53.746;10.058;2022-10-04T21:28:22;13.77;;;7.15;;
67278;SDS011;54193;53.746;10.058;2022-10-04T21:31:09;11.90;;;6.40;;
67278;SDS011;54193;53.746;10.058;2022-10-04T21:33:54;12.65;;;7.05;;
67278;SDS011;54193;53.746;10.058;2022-10-04T21:36:40;14.05;;;6.88;;
67278;SDS011;54193;53.746;10.058;2022-10-04T21:39:25;14.07;;;6.80;;
67278;SDS011;54193;53.746;10.058;2022-10-04T21:42:11;14.20;;;6.70;;
67278;SDS011;54193;53.746;10.058;2022-10-04T21:44:57;12.57;;;6.70;;
67278;SDS011;54193;53.746;10.058;2022-10-04T21:47:42;12.77;;;6.80;;
67278;SDS011;54193;53.746;10.058;2022-10-04T21:50:28;16.52;;;6.80;;
67278;SDS011;54193;53.746;10.058;2022-10-04T21:53:14;14.38;;;7.10;;
67278;SDS011;54193;53.746;10.058;2022-10-04T21:55:59;13.25;;;6.50;;
67278;SDS011;54193;53.746;10.058;2022-10-04T21:58:45;12.53;;;6.90;;
67278;SDS011;54193;53.746;10.058;2022-10-04T22:01:31;14.95;;;6.75;;
67278;SDS011;54193;53.746;10.058;2022-10-04T22:04:17;11.85;;;6.35;;
67278;SDS011;54193;53.746;10.058;2022-10-04T22:07:03;13.23;;;6.60;;
67278;SDS011;54193;53.746;10.058;2022-10-04T22:09:49;11.50;;;6.10;;
67278;SDS011;54193;53.746;10.058;2022-10-04T22:12:35;12.40;;;6.27;;
67278;SDS011;54193;53.746;10.058;2022-10-04T22:15:21;16.23;;;6.53;;
67278;SDS011;54193;53.746;10.058;2022-10-04T22:18:08;12.52;;;5.95;;
67278;SDS011;54193;53.746;10.058;2022-10-04T22:20:53;15.85;;;6.35;;
67278;SDS011;54193;53.746;10.058;2022-10-04T22:23:40;13.15;;;6.03;;
67278;SDS011;54193;53.746;10.058;2022-10-04T22:26:27;12.07;;;6.10;;
67278;SDS011;54193;53.746;10.058;2022-10-04T22:29:13;15.13;;;5.80;;
67278;SDS011;54193;53.746;10.058;2022-10-04T22:32:01;12.68;;;5.95;;
67278;SDS011;54193;53.746;10.058;2022-10-04T22:34:46;12.07;;;5.95;;
67278;SDS011;54193;53.746;10.058;2022-10-04T22:37:32;12.75;;;5.70;;
67278;SDS011;54193;53.746;10.058;2022-10-04T22:40:21;13.77;;;6.43;;
67278;SDS011;54193;53.746;10.058;2022-10-04T22:43:10;13.45;;;5.70;;
67278;SDS011;54193;53.746;10.058;2022-10-04T22:45:58;14.13;;;5.63;;
67278;SDS011;54193;53.746;10.058;2022-10-04T22:48:44;15.32;;;5.93;;
67278;SDS011;54193;53.746;10.058;2022-10-04T22:51:32;14.70;;;6.40;;
67278;SDS011;54193;53.746;10.058;2022-10-04T22:54:19;12.73;;;5.40;;
67278;SDS011;54193;53.746;10.058;2022-10-04T22:57:08;13.82;;;5.90;;
67278;SDS011;54193;53.746;10.058;2022-10-04T22:59:55;11.10;;;5.47;;
67278;SDS011;54193;53.746;10.058;2022-10-04T23:02:41;15.38;;;6.20;;
67278;SDS011;54193;53.746;10.058;2022-10-04T23:05:26;12.25;;;5.75;;
67278;SDS011;54193;53.746;10.058;2022-10-04T23:08:12;12.17;;;5.23;;
67278;SDS011;54193;53.746;10.058;2022-10-04T23:10:59;12.15;;;5.53;;
67278;SDS011;54193;53.746;10.058;2022-10-04T23:13:44;13.35;;;5.50;;
67278;SDS011;54193;53.746;10.058;2022-10-04T23:16:30;13.13;;;5.32;;
67278;SDS011;54193;53.746;10.058;2022-10-04T23:19:16;10.57;;;5.18;;
67278;SDS011;54193;53.746;10.058;2022-10-04T23:22:07;10.70;;;4.97;;
67278;SDS011;54193;53.746;10.058;2022-10-04T23:24:54;15.60;;;5.72;;
67278;SDS011;54193;53.746;10.058;2022-10-04T23:27:40;10.93;;;5.30;;
67278;SDS011;54193;53.746;10.058;2022-10-04T23:30:26;10.23;;;4.93;;
67278;SDS011;54193;53.746;10.058;2022-10-04T23:33:13;11.52;;;4.95;;
67278;SDS011;54193;53.746;10.058;2022-10-04T23:36:01;14.90;;;5.40;;
67278;SDS011;54193;53.746;10.058;2022-10-04T23:38:53;12.10;;;5.18;;
67278;SDS011;54193;53.746;10.058;2022-10-04T23:41:43;11.98;;;5.43;;
67278;SDS011;54193;53.746;10.058;2022-10-04T23:44:31;13.63;;;6.10;;
67278;SDS011;54193;53.746;10.058;2022-10-04T23:47:19;12.05;;;5.20;;
67278;SDS011;54193;53.746;10.058;2022-10-04T23:50:06;11.23;;;5.60;;
67278;SDS011;54193;53.746;10.058;2022-10-04T23:53:03;11.25;;;5.00;;
67278;SDS011;54193;53.746;10.058;2022-10-04T23:55:51;11.45;;;5.30;;
67278;SDS011;54193;53.746;10.058;2022-10-04T23:58:38;10.18;;;5.10;;
